createdAt,value
2022-10-07T00:00:59.792Z,73.95
2022-10-07T00:03:28.016Z,74.21
2022-10-07T00:06:05.563Z,74.62
2022-10-07T00:08:33.133Z,73.71
2022-10-07T00:11:05.277Z,74.03
2022-10-07T00:13:32.699Z,73.42
2022-10-07T00:16:08.145Z,74.15
2022-10-07T00:18:36.978Z,74.22
2022-10-07T00:21:10.283Z,73.77
2022-10-07T00:23:37.560Z,73.73
2022-10-07T00:26:07.427Z,73.81
2022-10-07T00:28:35.575Z,74.13
2022-10-07T00:31:06.222Z,73.70
2022-10-07T00:33:35.845Z,73.82
2022-10-07T00:36:09.404Z,74.00
2022-10-07T00:38:36.548Z,73.99
2022-10-07T00:41:03.549Z,73.15
2022-10-07T00:43:32.153Z,73.90
2022-10-07T00:46:29.870Z,74.28
2022-10-07T00:49:00.439Z,73.86
2022-10-07T00:51:28.349Z,73.48
2022-10-07T00:53:56.795Z,73.80
2022-10-07T00:56:27.432Z,74.08
2022-10-07T00:58:54.521Z,73.72
2022-10-07T01:01:22.108Z,74.02
2022-10-07T01:03:49.578Z,73.98
2022-10-07T01:06:17.024Z,73.86
2022-10-07T01:08:46.171Z,74.33
2022-10-07T01:11:31.147Z,74.21
2022-10-07T01:14:13.935Z,74.12
2022-10-07T01:16:40.918Z,73.89
2022-10-07T01:19:29.395Z,73.58
2022-10-07T01:22:17.257Z,73.47
2022-10-07T01:25:14.816Z,73.52
2022-10-07T01:27:50.432Z,74.15
2022-10-07T01:30:18.601Z,73.88
2022-10-07T01:32:55.418Z,73.58
2022-10-07T01:35:28.074Z,74.38
2022-10-07T01:38:00.546Z,74.30
2022-10-07T01:40:33.775Z,74.13
2022-10-07T01:43:01.996Z,73.83
2022-10-07T01:45:31.316Z,74.32
2022-10-07T01:47:59.655Z,74.33
2022-10-07T01:50:28.822Z,74.35
2022-10-07T01:53:04.566Z,74.29
2022-10-07T01:55:49.817Z,75.24
2022-10-07T01:58:33.638Z,74.40
2022-10-07T02:01:23.028Z,74.51
2022-10-07T02:04:02.010Z,73.90
2022-10-07T02:07:07.481Z,73.93
2022-10-07T02:09:49.248Z,73.79
2022-10-07T02:12:41.215Z,74.29
2022-10-07T02:15:20.411Z,74.52
2022-10-07T02:17:52.588Z,74.35
2022-10-07T02:20:22.808Z,73.76
2022-10-07T02:22:52.438Z,74.11
2022-10-07T02:25:21.397Z,73.91
2022-10-07T02:27:52.500Z,73.86
2022-10-07T02:30:20.751Z,73.91
2022-10-07T02:32:55.906Z,73.96
2022-10-07T02:35:45.925Z,74.14
2022-10-07T02:38:16.582Z,74.16
2022-10-07T02:40:50.206Z,74.84
2022-10-07T02:43:32.374Z,74.23
2022-10-07T02:46:11.596Z,74.05
2022-10-07T02:48:44.428Z,74.26
2022-10-07T02:51:21.229Z,74.30
2022-10-07T02:53:51.327Z,73.96
2022-10-07T02:56:22.380Z,74.05
2022-10-07T02:58:51.368Z,74.22
2022-10-07T03:01:23.668Z,74.19
2022-10-07T03:03:50.703Z,73.87
2022-10-07T03:06:23.611Z,74.03
2022-10-07T03:08:53.102Z,74.07
2022-10-07T03:11:20.067Z,73.58
2022-10-07T03:13:47.004Z,73.80
2022-10-07T03:16:14.003Z,73.92
2022-10-07T03:18:41.570Z,74.18
2022-10-07T03:21:09.023Z,74.35
2022-10-07T03:23:35.945Z,74.68
2022-10-07T03:26:03.131Z,74.37
2022-10-07T03:28:33.717Z,74.46
2022-10-07T03:31:05.946Z,74.68
2022-10-07T03:33:32.906Z,74.26
2022-10-07T03:35:59.873Z,74.44
2022-10-07T03:38:26.939Z,74.08
2022-10-07T03:40:53.940Z,74.24
2022-10-07T03:43:20.871Z,74.78
2022-10-07T03:45:51.166Z,75.38
2022-10-07T03:48:18.656Z,75.36
2022-10-07T03:50:52.702Z,75.97
2022-10-07T03:53:20.639Z,75.55
2022-10-07T03:55:47.601Z,76.46
2022-10-07T03:58:14.522Z,75.55
2022-10-07T04:00:41.686Z,75.36
2022-10-07T04:03:09.901Z,75.53
2022-10-07T04:05:37.786Z,75.30
2022-10-07T04:08:05.682Z,75.63
2022-10-07T04:10:33.425Z,75.36
2022-10-07T04:13:01.123Z,75.36
2022-10-07T04:15:28.253Z,75.80
2022-10-07T04:18:00.422Z,76.13
2022-10-07T04:20:27.545Z,75.77
2022-10-07T04:22:54.503Z,75.50
2022-10-07T04:25:38.115Z,75.27
2022-10-07T04:28:08.807Z,75.19
2022-10-07T04:30:40.319Z,76.66
2022-10-07T04:33:08.413Z,75.70
2022-10-07T04:35:38.094Z,75.60
2022-10-07T04:38:10.105Z,76.34
2022-10-07T04:40:42.086Z,75.64
2022-10-07T04:43:20.329Z,75.40
2022-10-07T04:45:49.754Z,75.43
2022-10-07T04:48:18.755Z,74.98
2022-10-07T04:50:46.418Z,75.45
2022-10-07T04:53:15.806Z,75.02
2022-10-07T04:55:48.601Z,74.69
2022-10-07T04:58:16.557Z,75.32
2022-10-07T05:00:52.215Z,74.75
2022-10-07T05:03:20.790Z,75.40
2022-10-07T05:05:50.213Z,75.23
2022-10-07T05:08:19.672Z,75.38
2022-10-07T05:10:47.481Z,75.27
2022-10-07T05:13:17.250Z,74.98
2022-10-07T05:15:58.584Z,75.47
2022-10-07T05:18:27.901Z,75.97
2022-10-07T05:20:55.631Z,76.00
2022-10-07T05:23:28.377Z,76.12
2022-10-07T05:26:05.079Z,76.03
2022-10-07T05:28:32.434Z,75.99
2022-10-07T05:31:17.709Z,76.16
2022-10-07T05:33:44.667Z,76.05
2022-10-07T05:36:12.571Z,76.19
2022-10-07T05:38:39.495Z,75.91
2022-10-07T05:41:08.726Z,75.82
2022-10-07T05:43:38.411Z,76.30
2022-10-07T05:46:07.945Z,75.33
2022-10-07T05:48:39.262Z,75.80
2022-10-07T05:51:08.667Z,75.97
2022-10-07T05:53:36.064Z,75.47
2022-10-07T05:56:07.043Z,75.65
2022-10-07T05:58:36.487Z,75.83
2022-10-07T06:01:10.011Z,75.79
2022-10-07T06:03:40.882Z,75.93
2022-10-07T06:06:09.243Z,75.78
2022-10-07T06:08:37.049Z,75.65
2022-10-07T06:11:23.929Z,76.09
2022-10-07T06:13:54.393Z,76.08
2022-10-07T06:16:22.375Z,75.58
2022-10-07T06:18:52.638Z,75.70
2022-10-07T06:21:21.311Z,75.88
2022-10-07T06:23:52.417Z,76.36
2022-10-07T06:26:20.433Z,75.52
2022-10-07T06:28:48.245Z,75.38
2022-10-07T06:31:25.451Z,75.99
2022-10-07T06:33:53.278Z,76.16
2022-10-07T06:36:20.758Z,75.03
2022-10-07T06:38:51.025Z,75.36
2022-10-07T06:41:19.059Z,75.32
2022-10-07T06:43:46.174Z,74.46
2022-10-07T06:46:16.395Z,75.15
2022-10-07T06:48:44.917Z,75.39
2022-10-07T06:51:17.173Z,75.35
2022-10-07T06:53:45.024Z,75.38
2022-10-07T06:56:14.877Z,74.92
2022-10-07T06:58:43.588Z,75.33
2022-10-07T07:01:11.879Z,75.85
2022-10-07T07:03:39.181Z,75.83
2022-10-07T07:06:08.204Z,76.71
2022-10-07T07:08:35.673Z,76.90
2022-10-07T07:11:05.843Z,76.01
2022-10-07T07:13:35.477Z,75.37
2022-10-07T07:16:02.671Z,75.45
2022-10-07T07:18:30.228Z,75.21
2022-10-07T07:21:02.943Z,77.32
2022-10-07T07:23:29.874Z,76.98
2022-10-07T07:25:56.815Z,76.18
2022-10-07T07:28:23.770Z,75.71
2022-10-07T07:30:50.807Z,75.70
2022-10-07T07:33:17.864Z,75.50
2022-10-07T07:35:45.302Z,75.74
2022-10-07T07:38:12.278Z,75.88
2022-10-07T07:40:39.993Z,75.73
2022-10-07T07:43:08.202Z,76.63
2022-10-07T07:45:38.458Z,76.56
2022-10-07T07:48:05.577Z,77.02
2022-10-07T07:50:32.667Z,76.89
2022-10-07T07:53:02.262Z,76.69
2022-10-07T07:55:29.217Z,75.19
2022-10-07T07:57:56.088Z,75.67
2022-10-07T08:00:23.067Z,74.77
2022-10-07T08:02:50.072Z,75.08
2022-10-07T08:05:20.211Z,74.62
2022-10-07T08:07:50.507Z,74.15
2022-10-07T08:10:17.495Z,73.69
2022-10-07T08:12:44.460Z,73.45
2022-10-07T08:15:11.333Z,74.26
2022-10-07T08:17:38.258Z,73.25
2022-10-07T08:20:05.673Z,72.64
2022-10-07T08:22:32.647Z,72.61
2022-10-07T08:25:00.583Z,71.88
2022-10-07T08:27:28.570Z,72.12
2022-10-07T08:29:55.557Z,71.62
2022-10-07T08:32:22.552Z,70.75
2022-10-07T08:34:49.616Z,70.95
2022-10-07T08:37:16.582Z,69.93
2022-10-07T08:39:43.572Z,70.20
2022-10-07T08:42:30.946Z,70.39
2022-10-07T08:44:58.145Z,69.75
2022-10-07T08:47:38.371Z,69.31
2022-10-07T08:50:19.105Z,68.81
2022-10-07T08:52:51.175Z,68.80
2022-10-07T08:55:24.627Z,67.35
2022-10-07T08:57:55.202Z,67.56
2022-10-07T09:00:25.187Z,67.08
2022-10-07T09:03:07.772Z,66.68
2022-10-07T09:05:41.401Z,66.80
2022-10-07T09:08:28.172Z,65.58
2022-10-07T09:11:03.421Z,66.59
2022-10-07T09:13:40.694Z,64.20
2022-10-07T09:16:10.513Z,65.28
2022-10-07T09:18:42.701Z,64.46
2022-10-07T09:21:17.610Z,65.17
2022-10-07T09:23:46.789Z,64.54
2022-10-07T09:26:17.027Z,64.28
2022-10-07T09:28:44.090Z,63.46
2022-10-07T09:31:15.056Z,62.78
2022-10-07T09:33:45.946Z,63.78
2022-10-07T09:36:19.272Z,61.81
2022-10-07T09:38:52.771Z,62.10
2022-10-07T09:41:38.945Z,61.92
2022-10-07T09:44:25.754Z,61.82
2022-10-07T09:46:56.536Z,62.11
2022-10-07T09:49:29.590Z,61.44
2022-10-07T09:52:05.982Z,61.83
2022-10-07T09:54:36.042Z,61.89
2022-10-07T09:57:05.171Z,61.26
2022-10-07T09:59:37.125Z,60.56
2022-10-07T10:02:10.329Z,61.06
2022-10-07T10:04:40.443Z,60.88
2022-10-07T10:07:17.334Z,60.38
2022-10-07T10:09:55.876Z,60.06
2022-10-07T10:12:25.170Z,59.53
2022-10-07T10:14:53.393Z,60.09
2022-10-07T10:17:40.150Z,59.28
2022-10-07T10:20:36.543Z,58.79
2022-10-07T10:23:28.092Z,58.40
2022-10-07T10:26:19.575Z,56.13
2022-10-07T10:29:14.263Z,55.15
2022-10-07T10:32:07.850Z,54.47
2022-10-07T10:34:53.291Z,55.64
2022-10-07T10:37:33.644Z,54.79
2022-10-07T10:40:21.241Z,54.86
2022-10-07T10:43:11.262Z,56.30
2022-10-07T10:46:16.285Z,55.48
2022-10-07T10:49:16.288Z,55.32
2022-10-07T10:51:58.927Z,55.56
2022-10-07T10:54:39.339Z,54.92
2022-10-07T10:57:43.617Z,54.78
2022-10-07T11:00:15.821Z,55.17
2022-10-07T11:03:04.625Z,54.74
2022-10-07T11:05:37.603Z,55.16
2022-10-07T11:08:37.840Z,54.05
2022-10-07T11:11:11.542Z,53.08
2022-10-07T11:13:54.881Z,53.26
2022-10-07T11:16:47.922Z,52.48
2022-10-07T11:19:20.759Z,53.31
2022-10-07T11:21:50.930Z,53.80
2022-10-07T11:24:29.602Z,54.13
2022-10-07T11:27:11.804Z,53.04
2022-10-07T11:29:52.471Z,52.70
2022-10-07T11:32:36.237Z,52.93
2022-10-07T11:35:30.434Z,53.81
2022-10-07T11:38:13.323Z,53.66
2022-10-07T11:40:46.220Z,54.27
2022-10-07T11:43:21.902Z,53.56
2022-10-07T11:45:52.974Z,54.37
2022-10-07T11:48:27.404Z,54.22
2022-10-07T11:51:01.993Z,54.28
2022-10-07T11:53:34.894Z,54.23
2022-10-07T11:56:23.149Z,53.09
2022-10-07T11:59:05.526Z,53.17
2022-10-07T12:01:35.371Z,53.58
2022-10-07T12:04:34.303Z,54.24
2022-10-07T12:07:32.637Z,53.29
2022-10-07T12:10:02.625Z,52.55
2022-10-07T12:12:57.142Z,52.03
2022-10-07T12:15:36.288Z,52.74
2022-10-07T12:18:06.226Z,53.48
2022-10-07T12:20:51.504Z,53.39
2022-10-07T12:23:22.945Z,53.98
2022-10-07T12:25:54.983Z,53.44
2022-10-07T12:28:30.295Z,52.53
2022-10-07T12:31:02.597Z,53.69
2022-10-07T12:33:52.839Z,51.57
2022-10-07T12:36:22.625Z,51.94
2022-10-07T12:39:12.720Z,52.02
2022-10-07T12:41:45.561Z,52.79
2022-10-07T12:44:15.497Z,51.22
2022-10-07T12:47:15.085Z,50.83
2022-10-07T12:50:07.666Z,53.53
2022-10-07T12:52:46.237Z,53.18
2022-10-07T12:55:23.808Z,53.19
2022-10-07T12:57:55.300Z,53.54
2022-10-07T13:00:28.137Z,53.22
2022-10-07T13:03:29.468Z,53.68
2022-10-07T13:06:07.970Z,53.53
2022-10-07T13:09:02.994Z,53.47
2022-10-07T13:11:48.333Z,53.75
2022-10-07T13:14:41.912Z,54.64
2022-10-07T13:17:21.076Z,54.44
2022-10-07T13:19:52.975Z,54.18
2022-10-07T13:22:20.519Z,54.83
2022-10-07T13:24:53.928Z,54.10
2022-10-07T13:27:25.630Z,54.87
2022-10-07T13:29:53.613Z,53.85
2022-10-07T13:32:32.683Z,52.77
2022-10-07T13:35:01.801Z,53.91
2022-10-07T13:37:35.192Z,53.59
2022-10-07T13:40:22.782Z,55.07
2022-10-07T13:42:59.511Z,55.63
2022-10-07T13:45:28.050Z,55.88
2022-10-07T13:47:57.499Z,55.25
2022-10-07T13:50:27.494Z,55.33
2022-10-07T13:52:56.375Z,54.94
2022-10-07T13:55:26.406Z,55.22
2022-10-07T13:57:57.616Z,54.91
2022-10-07T14:00:29.399Z,54.83
2022-10-07T14:02:56.471Z,55.79
2022-10-07T14:05:30.574Z,56.30
2022-10-07T14:08:11.414Z,56.36
2022-10-07T14:10:49.178Z,56.63
2022-10-07T14:13:16.847Z,57.58
2022-10-07T14:15:49.099Z,57.50
2022-10-07T14:18:20.411Z,57.61
2022-10-07T14:20:56.198Z,57.08
2022-10-07T14:23:34.625Z,57.29
2022-10-07T14:26:06.387Z,57.53
2022-10-07T14:28:35.530Z,57.88
2022-10-07T14:31:27.409Z,58.04
2022-10-07T14:34:16.078Z,58.29
2022-10-07T14:37:05.212Z,57.83
2022-10-07T14:39:53.497Z,57.58
2022-10-07T14:42:26.858Z,58.17
2022-10-07T14:44:56.274Z,58.35
2022-10-07T14:47:28.570Z,58.71
2022-10-07T14:49:57.357Z,59.01
2022-10-07T14:52:52.503Z,58.82
2022-10-07T14:55:25.816Z,59.14
2022-10-07T14:57:53.262Z,59.03
2022-10-07T15:00:30.221Z,59.06
2022-10-07T15:02:57.165Z,59.92
2022-10-07T15:05:24.914Z,59.81
2022-10-07T15:07:52.119Z,59.28
2022-10-07T15:10:22.310Z,60.29
2022-10-07T15:12:50.393Z,60.48
2022-10-07T15:15:17.816Z,60.78
2022-10-07T15:17:44.830Z,61.06
2022-10-07T15:20:14.874Z,61.15
2022-10-07T15:22:42.395Z,61.96
2022-10-07T15:25:10.945Z,61.87
2022-10-07T15:27:38.393Z,61.79
2022-10-07T15:30:07.409Z,61.99
2022-10-07T15:32:34.778Z,62.55
2022-10-07T15:35:01.998Z,62.93
2022-10-07T15:37:28.871Z,62.86
2022-10-07T15:39:56.024Z,63.44
2022-10-07T15:42:26.049Z,63.65
2022-10-07T15:44:54.152Z,63.72
2022-10-07T15:47:21.144Z,63.92
2022-10-07T15:49:49.252Z,64.61
2022-10-07T15:52:16.790Z,64.67
2022-10-07T15:54:46.592Z,64.80
2022-10-07T15:57:14.584Z,66.11
2022-10-07T15:59:42.450Z,65.74
2022-10-07T16:02:18.130Z,66.01
2022-10-07T16:04:47.596Z,66.56
2022-10-07T16:07:15.621Z,66.47
2022-10-07T16:09:42.618Z,66.79
2022-10-07T16:12:09.701Z,66.64
2022-10-07T16:14:36.734Z,66.83
2022-10-07T16:17:04.892Z,66.76
2022-10-07T16:19:31.846Z,67.52
2022-10-07T16:21:58.835Z,67.06
2022-10-07T16:24:25.806Z,67.89
2022-10-07T16:26:53.118Z,67.78
2022-10-07T16:29:40.909Z,67.79
2022-10-07T16:32:13.029Z,67.31
2022-10-07T16:34:43.764Z,67.51
2022-10-07T16:37:11.208Z,68.82
2022-10-07T16:39:38.560Z,67.94
2022-10-07T16:42:05.621Z,68.24
2022-10-07T16:44:32.653Z,68.41
2022-10-07T16:47:00.659Z,68.63
2022-10-07T16:49:29.636Z,68.64
2022-10-07T16:51:57.046Z,68.33
2022-10-07T16:54:24.694Z,68.62
2022-10-07T16:56:52.844Z,68.69
2022-10-07T16:59:26.325Z,68.96
2022-10-07T17:01:55.997Z,68.72
2022-10-07T17:04:25.039Z,69.27
2022-10-07T17:06:52.845Z,69.25
2022-10-07T17:09:20.047Z,69.64
2022-10-07T17:11:47.260Z,69.35
2022-10-07T17:14:19.739Z,69.89
2022-10-07T17:16:51.995Z,69.54
2022-10-07T17:19:24.303Z,69.79
2022-10-07T17:21:53.033Z,69.86
2022-10-07T17:24:22.762Z,70.19
2022-10-07T17:26:50.717Z,69.77
2022-10-07T17:29:21.017Z,70.42
2022-10-07T17:31:50.974Z,69.94
2022-10-07T17:34:23.035Z,70.10
2022-10-07T17:36:50.756Z,69.84
2022-10-07T17:39:19.643Z,70.15
2022-10-07T17:41:47.500Z,69.81
2022-10-07T17:44:14.496Z,69.99
2022-10-07T17:46:41.711Z,70.11
2022-10-07T17:49:13.675Z,69.62
2022-10-07T17:51:42.893Z,70.17
2022-10-07T17:54:11.893Z,69.99
2022-10-07T17:56:38.892Z,69.61
2022-10-07T17:59:05.830Z,69.68
2022-10-07T18:01:34.972Z,70.04
2022-10-07T18:04:04.667Z,70.05
2022-10-07T18:06:34.874Z,69.95
2022-10-07T18:09:04.683Z,70.09
2022-10-07T18:11:51.272Z,70.26
2022-10-07T18:14:37.234Z,70.27
2022-10-07T18:17:05.238Z,70.31
2022-10-07T18:19:32.458Z,70.14
2022-10-07T18:21:59.394Z,70.34
2022-10-07T18:24:29.067Z,70.47
2022-10-07T18:26:59.416Z,70.92
2022-10-07T18:29:31.447Z,70.77
2022-10-07T18:31:58.800Z,70.60
2022-10-07T18:34:25.841Z,70.38
2022-10-07T18:36:56.652Z,70.27
2022-10-07T18:39:25.243Z,70.56
2022-10-07T18:41:52.180Z,70.54
2022-10-07T18:44:19.331Z,70.59
2022-10-07T18:46:46.363Z,70.86
2022-10-07T18:49:14.159Z,70.25
2022-10-07T18:51:41.580Z,70.55
2022-10-07T18:54:08.808Z,70.74
2022-10-07T18:56:40.015Z,70.32
2022-10-07T18:59:08.160Z,71.23
2022-10-07T19:01:35.246Z,70.83
2022-10-07T19:04:03.497Z,71.42
2022-10-07T19:06:32.540Z,71.45
2022-10-07T19:09:03.433Z,71.08
2022-10-07T19:11:30.841Z,71.26
2022-10-07T19:13:59.539Z,71.38
2022-10-07T19:16:34.922Z,71.73
2022-10-07T19:19:05.200Z,71.63
2022-10-07T19:21:32.569Z,72.09
2022-10-07T19:24:03.851Z,71.95
2022-10-07T19:26:43.184Z,72.72
2022-10-07T19:29:11.748Z,72.22
2022-10-07T19:31:41.775Z,73.20
2022-10-07T19:34:20.484Z,73.35
2022-10-07T19:36:48.738Z,72.37
2022-10-07T19:39:18.491Z,72.65
2022-10-07T19:41:46.415Z,73.54
2022-10-07T19:44:14.460Z,73.10
2022-10-07T19:46:41.855Z,73.50
2022-10-07T19:49:09.571Z,73.16
2022-10-07T19:51:37.595Z,73.13
2022-10-07T19:54:10.307Z,73.29
2022-10-07T19:56:37.737Z,73.22
2022-10-07T19:59:07.708Z,73.79
2022-10-07T20:01:37.905Z,73.48
2022-10-07T20:04:07.719Z,73.22
2022-10-07T20:06:39.171Z,73.23
2022-10-07T20:09:08.890Z,73.24
2022-10-07T20:11:36.771Z,73.47
2022-10-07T20:14:06.093Z,73.55
2022-10-07T20:16:34.053Z,73.43
2022-10-07T20:19:06.046Z,73.63
2022-10-07T20:21:35.938Z,73.84
2022-10-07T20:24:04.541Z,73.65
2022-10-07T20:26:34.283Z,73.62
2022-10-07T20:29:02.974Z,74.15
2022-10-07T20:31:32.814Z,73.38
2022-10-07T20:34:00.544Z,73.50
2022-10-07T20:36:30.764Z,73.28
2022-10-07T20:39:47.005Z,73.44
2022-10-07T20:42:24.692Z,73.56
2022-10-07T20:44:52.866Z,73.53
2022-10-07T20:47:20.957Z,73.62
2022-10-07T20:49:49.290Z,73.34
2022-10-07T20:52:21.399Z,73.62
2022-10-07T20:54:48.422Z,73.14
2022-10-07T20:57:17.883Z,73.75
2022-10-07T20:59:44.888Z,73.68
2022-10-07T21:02:13.883Z,73.55
2022-10-07T21:04:41.339Z,73.36
2022-10-07T21:07:08.807Z,73.24
2022-10-07T21:09:40.138Z,73.32
2022-10-07T21:12:14.028Z,73.71
2022-10-07T21:14:42.597Z,73.38
2022-10-07T21:17:09.782Z,73.64
2022-10-07T21:19:36.927Z,73.23
2022-10-07T21:22:05.598Z,73.60
2022-10-07T21:24:36.342Z,74.08
2022-10-07T21:27:04.187Z,74.20
2022-10-07T21:29:31.683Z,73.32
2022-10-07T21:31:58.906Z,73.57
2022-10-07T21:34:26.359Z,73.80
2022-10-07T21:36:54.759Z,73.42
2022-10-07T21:39:21.885Z,73.54
2022-10-07T21:41:49.793Z,73.72
2022-10-07T21:44:19.730Z,73.96
2022-10-07T21:46:47.115Z,74.39
2022-10-07T21:49:14.999Z,74.25
2022-10-07T21:51:42.952Z,74.22
2022-10-07T21:54:14.572Z,73.91
2022-10-07T21:56:44.059Z,73.73
2022-10-07T21:59:11.687Z,74.05
2022-10-07T22:01:39.052Z,74.07
2022-10-07T22:04:06.327Z,74.55
2022-10-07T22:06:51.917Z,74.61
2022-10-07T22:09:21.497Z,74.19
2022-10-07T22:11:49.219Z,74.07
2022-10-07T22:14:17.589Z,74.53
2022-10-07T22:16:48.524Z,74.09
2022-10-07T22:19:17.802Z,74.19
2022-10-07T22:21:46.040Z,74.20
2022-10-07T22:24:14.379Z,74.39
2022-10-07T22:26:46.266Z,74.34
2022-10-07T22:29:16.407Z,73.98
2022-10-07T22:31:43.529Z,74.02
2022-10-07T22:34:33.958Z,74.44
2022-10-07T22:37:01.355Z,74.08
2022-10-07T22:39:31.764Z,73.99
2022-10-07T22:42:00.124Z,73.52
2022-10-07T22:44:28.456Z,74.06
2022-10-07T22:46:56.737Z,74.10
2022-10-07T22:49:27.336Z,73.88
2022-10-07T22:51:56.697Z,73.85
2022-10-07T22:54:23.669Z,74.86
2022-10-07T22:56:50.631Z,74.03
2022-10-07T22:59:17.593Z,74.48
2022-10-07T23:01:44.551Z,74.53
2022-10-07T23:04:11.512Z,73.92
2022-10-07T23:06:38.401Z,74.17
2022-10-07T23:09:05.575Z,74.66
2022-10-07T23:11:32.598Z,74.23
2022-10-07T23:14:00.225Z,74.61
2022-10-07T23:16:29.942Z,74.42
2022-10-07T23:18:58.756Z,74.89
2022-10-07T23:21:32.872Z,74.94
2022-10-07T23:24:06.961Z,74.77
2022-10-07T23:26:35.763Z,74.45
2022-10-07T23:29:03.202Z,74.74
2022-10-07T23:31:32.213Z,75.14
2022-10-07T23:34:01.177Z,74.67
2022-10-07T23:36:29.348Z,75.31
2022-10-07T23:38:58.250Z,75.33
2022-10-07T23:41:27.607Z,75.05
2022-10-07T23:43:57.215Z,75.38
2022-10-07T23:46:26.605Z,75.22
2022-10-07T23:48:54.189Z,75.03
2022-10-07T23:51:23.623Z,75.31
2022-10-07T23:53:51.139Z,75.15
2022-10-07T23:56:19.054Z,75.27
2022-10-07T23:58:46.176Z,75.26
